Weather at Huntsville Municipal Airport

Public forecast

Using degrees Fahrenheit for public forecast. Weather courtesy of forecast.io.

Closest aviation weather report (METAR) to Huntsville Municipal Airport

Closest report is Springdale Municipal Airport, 18.6 nm (34.5 km) WNW. Retrieved 2022/07/02 01:48 UTC (42 minutes ago):

KASG 020148Z 16004KT 10SM CLR 30/22 A2997

Closest aviation forecast (TAF) to Huntsville Municipal Airport

Closest forecast is Drake Field, 20.6 nm (38.2 km) WSW. Retrieved 2022-07-02 00:27 UTC (2 hours ago):

TAF KFYV 012324Z 0200/0224 00000KT P6SM SKC FM021500 12005KT P6SM SCT045